Time;durP1;ratioP1;P1;durP2;ratioP2;P2;SDS_P1;SDS_P2;PMS_P1;PMS_P2;Temp;Humidity;BMP_temperature;BMP_pressure;BME280_temperature;BME280_humidity;BME280_pressure;Samples;Min_cycle;Max_cycle;Signal;HPM_P1;HPM_P2
2023/11/25 00:00:56;;;;;;;2.38;1.10;;;;;;;;;;5038434;28;20387;-78
2023/11/25 00:03:22;;;;;;;1.55;0.90;;;;;;;;;;5039474;28;20462;-79
2023/11/25 00:05:49;;;;;;;2.80;1.27;;;;;;;;;;5039684;28;20433;-79
2023/11/25 00:08:15;;;;;;;2.43;1.23;;;;;;;;;;5040691;28;20419;-78
2023/11/25 00:10:41;;;;;;;1.95;0.90;;;;;;;;;;5039759;28;20399;-78
2023/11/25 00:13:07;;;;;;;4.30;1.60;;;;;;;;;;5039309;28;20395;-81
2023/11/25 00:15:33;;;;;;;3.03;2.40;;;;;;;;;;5022867;28;20435;-80
2023/11/25 00:17:59;;;;;;;4.75;3.22;;;;;;;;;;5018765;28;20947;-78
2023/11/25 00:20:25;;;;;;;4.80;2.00;;;;;;;;;;5018477;28;20428;-78
2023/11/25 00:22:52;;;;;;;7.28;2.92;;;;;;;;;;5018718;28;20403;-78
2023/11/25 00:25:19;;;;;;;4.43;2.67;;;;;;;;;;5019318;28;20731;-79
2023/11/25 00:27:49;;;;;;;6.72;3.95;;;;;;;;;;5019056;28;20421;-78
2023/11/25 00:30:15;;;;;;;3.50;1.85;;;;;;;;;;5018793;28;20393;-79
2023/11/25 00:32:41;;;;;;;2.28;1.50;;;;;;;;;;5020419;28;20389;-79
2023/11/25 00:35:08;;;;;;;2.35;1.30;;;;;;;;;;5018325;28;20385;-78
2023/11/25 00:37:35;;;;;;;2.78;1.50;;;;;;;;;;5017890;28;20435;-78
2023/11/25 00:40:01;;;;;;;2.75;1.33;;;;;;;;;;5018755;28;20396;-78
2023/11/25 00:42:27;;;;;;;2.65;1.52;;;;;;;;;;5017846;28;20391;-78
2023/11/25 00:44:53;;;;;;;2.80;1.40;;;;;;;;;;5017916;28;20835;-78
2023/11/25 00:47:22;;;;;;;2.38;1.40;;;;;;;;;;5018290;28;20421;-78
2023/11/25 00:49:52;;;;;;;3.20;1.50;;;;;;;;;;5018216;28;20388;-78
2023/11/25 00:52:18;;;;;;;3.80;1.85;;;;;;;;;;5016830;28;20449;-79
2023/11/25 00:54:45;;;;;;;3.80;2.10;;;;;;;;;;5019250;28;20407;-80
2023/11/25 00:57:11;;;;;;;4.68;2.22;;;;;;;;;;5032169;28;20404;-80
2023/11/25 00:59:37;;;;;;;3.88;2.40;;;;;;;;;;5017270;28;20399;-80
2023/11/25 01:02:03;;;;;;;4.78;2.60;;;;;;;;;;5016807;28;20385;-81
2023/11/25 01:04:29;;;;;;;6.47;2.30;;;;;;;;;;4999506;28;20389;-80
2023/11/25 01:06:55;;;;;;;4.68;1.88;;;;;;;;;;5015118;28;20748;-80
2023/11/25 01:09:25;;;;;;;2.92;1.80;;;;;;;;;;5029701;28;20431;-78
2023/11/25 01:11:51;;;;;;;5.00;1.88;;;;;;;;;;5034942;28;20387;-78
2023/11/25 01:14:17;;;;;;;3.15;1.63;;;;;;;;;;5035548;28;20452;-80
2023/11/25 01:16:43;;;;;;;3.05;1.77;;;;;;;;;;5035543;28;20418;-80
2023/11/25 01:19:09;;;;;;;3.53;1.80;;;;;;;;;;5037007;28;20399;-80
2023/11/25 01:21:35;;;;;;;7.45;1.98;;;;;;;;;;5035352;28;20773;-78
2023/11/25 01:24:01;;;;;;;3.42;1.70;;;;;;;;;;5034982;28;20399;-80
2023/11/25 01:26:27;;;;;;;3.85;1.90;;;;;;;;;;5035638;28;20376;-80
2023/11/25 01:28:53;;;;;;;3.22;1.92;;;;;;;;;;5035427;28;20773;-77
2023/11/25 01:31:19;;;;;;;3.43;1.90;;;;;;;;;;5034792;28;20395;-77
2023/11/25 01:33:45;;;;;;;3.75;1.92;;;;;;;;;;5034963;28;20403;-78
2023/11/25 01:36:11;;;;;;;3.53;1.88;;;;;;;;;;5036019;28;20454;-78
2023/11/25 01:38:40;;;;;;;2.35;1.55;;;;;;;;;;5036858;28;20857;-78
2023/11/25 01:41:06;;;;;;;2.57;1.30;;;;;;;;;;5036231;28;20514;-78
2023/11/25 01:43:32;;;;;;;4.05;2.15;;;;;;;;;;5036697;28;20391;-78
2023/11/25 01:46:00;;;;;;;2.92;1.65;;;;;;;;;;5036191;28;20478;-78
2023/11/25 01:48:29;;;;;;;4.80;1.10;;;;;;;;;;5035765;28;20427;-79
2023/11/25 01:50:56;;;;;;;2.90;1.20;;;;;;;;;;5018072;28;20440;-78
2023/11/25 01:53:22;;;;;;;1.73;1.10;;;;;;;;;;5037423;28;20421;-77
2023/11/25 01:55:49;;;;;;;2.33;1.13;;;;;;;;;;5036670;28;20725;-78
2023/11/25 01:58:15;;;;;;;2.90;1.17;;;;;;;;;;5036408;28;20383;-78
2023/11/25 02:00:45;;;;;;;2.20;1.55;;;;;;;;;;5036332;28;20413;-78
2023/11/25 02:03:13;;;;;;;4.45;1.70;;;;;;;;;;5036718;28;20394;-78
2023/11/25 02:05:39;;;;;;;2.95;1.90;;;;;;;;;;5036191;28;20896;-78
2023/11/25 02:08:07;;;;;;;2.50;1.50;;;;;;;;;;5035657;28;20431;-78
2023/11/25 02:10:33;;;;;;;2.97;1.60;;;;;;;;;;5035935;28;20853;-78
2023/11/25 02:13:02;;;;;;;2.70;1.63;;;;;;;;;;5031576;28;20397;-78
2023/11/25 02:15:28;;;;;;;3.38;1.73;;;;;;;;;;5016016;28;20429;-78
2023/11/25 02:17:54;;;;;;;2.78;1.70;;;;;;;;;;5016334;28;20397;-78
2023/11/25 02:20:36;;;;;;;2.00;1.30;;;;;;;;;;5015999;28;20421;-78
2023/11/25 02:23:03;;;;;;;2.90;1.30;;;;;;;;;;5018489;28;20450;-78
2023/11/25 02:25:29;;;;;;;2.30;1.10;;;;;;;;;;5016567;28;20407;-78
2023/11/25 02:27:55;;;;;;;1.73;1.08;;;;;;;;;;5015506;28;20448;-78
2023/11/25 02:30:23;;;;;;;2.15;0.98;;;;;;;;;;5016507;28;20708;-79
2023/11/25 02:32:50;;;;;;;3.03;1.10;;;;;;;;;;5016646;28;20427;-78
2023/11/25 02:35:16;;;;;;;1.42;0.88;;;;;;;;;;5016228;28;20412;-78
2023/11/25 02:37:45;;;;;;;2.47;0.85;;;;;;;;;;5016039;28;20775;-78
2023/11/25 02:40:16;;;;;;;2.97;0.57;;;;;;;;;;5016418;28;20444;-78
2023/11/25 02:42:44;;;;;;;1.60;0.70;;;;;;;;;;5016129;28;20391;-78
2023/11/25 02:45:12;;;;;;;1.33;0.80;;;;;;;;;;5015595;28;20784;-79
2023/11/25 02:47:38;;;;;;;1.45;0.77;;;;;;;;;;5015761;28;20488;-78
2023/11/25 02:50:04;;;;;;;2.55;0.75;;;;;;;;;;5015986;28;20384;-78
2023/11/25 02:52:30;;;;;;;2.22;0.80;;;;;;;;;;5016506;28;20420;-78
2023/11/25 02:54:56;;;;;;;1.45;0.60;;;;;;;;;;5019480;28;20385;-78
2023/11/25 02:57:22;;;;;;;2.77;0.50;;;;;;;;;;5019563;28;20843;-79
2023/11/25 02:59:48;;;;;;;2.17;0.73;;;;;;;;;;5018993;28;20407;-78
2023/11/25 03:02:15;;;;;;;1.52;0.57;;;;;;;;;;5019662;28;20385;-78
2023/11/25 03:04:45;;;;;;;2.13;0.63;;;;;;;;;;5019302;28;20432;-78
2023/11/25 03:07:13;;;;;;;2.90;0.77;;;;;;;;;;5019133;28;20491;-78
2023/11/25 03:09:39;;;;;;;1.40;0.60;;;;;;;;;;5033159;28;20438;-79
2023/11/25 03:12:05;;;;;;;0.90;0.50;;;;;;;;;;5038919;28;20391;-78
2023/11/25 03:14:31;;;;;;;2.55;0.70;;;;;;;;;;5038721;28;20853;-78
2023/11/25 03:16:57;;;;;;;1.52;0.60;;;;;;;;;;5039366;28;20415;-78
2023/11/25 03:19:23;;;;;;;3.08;0.70;;;;;;;;;;5039247;28;20375;-79
2023/11/25 03:21:52;;;;;;;2.47;0.80;;;;;;;;;;5039315;28;20881;-78
2023/11/25 03:24:21;;;;;;;3.67;0.90;;;;;;;;;;5040012;28;20414;-78
2023/11/25 03:26:47;;;;;;;1.92;0.90;;;;;;;;;;5039848;28;20462;-79
2023/11/25 03:29:13;;;;;;;1.58;0.60;;;;;;;;;;5040386;28;20398;-79
2023/11/25 03:31:42;;;;;;;1.60;0.65;;;;;;;;;;5039055;28;20391;-79
2023/11/25 03:34:09;;;;;;;1.33;0.68;;;;;;;;;;5038753;28;20460;-79
2023/11/25 03:36:35;;;;;;;1.77;0.60;;;;;;;;;;5038789;28;20394;-78
2023/11/25 03:39:01;;;;;;;2.40;0.60;;;;;;;;;;5038537;28;20386;-78
2023/11/25 03:41:28;;;;;;;2.03;0.77;;;;;;;;;;5038808;28;20398;-78
2023/11/25 03:43:54;;;;;;;2.90;0.80;;;;;;;;;;5039094;28;20386;-79
2023/11/25 03:46:21;;;;;;;1.75;0.57;;;;;;;;;;5039670;28;20877;-79
2023/11/25 03:48:47;;;;;;;1.58;0.60;;;;;;;;;;5039007;28;20948;-80
2023/11/25 03:51:15;;;;;;;1.42;0.50;;;;;;;;;;5038865;28;20418;-79
2023/11/25 03:53:41;;;;;;;2.38;0.80;;;;;;;;;;5038260;28;20389;-79
2023/11/25 03:56:07;;;;;;;1.25;0.55;;;;;;;;;;5039168;28;20411;-79
2023/11/25 03:58:33;;;;;;;0.90;0.60;;;;;;;;;;5038671;28;20410;-79
2023/11/25 04:00:59;;;;;;;1.55;0.40;;;;;;;;;;5038328;28;20398;-79
2023/11/25 04:03:25;;;;;;;2.10;0.73;;;;;;;;;;5036932;28;20387;-79
2023/11/25 04:05:52;;;;;;;1.40;0.70;;;;;;;;;;5029082;28;20393;-79
2023/11/25 04:08:18;;;;;;;1.05;0.40;;;;;;;;;;5018017;28;20452;-79
2023/11/25 04:10:44;;;;;;;1.83;0.45;;;;;;;;;;5018650;28;20385;-79
2023/11/25 04:13:10;;;;;;;1.70;0.57;;;;;;;;;;5019547;28;20397;-79
2023/11/25 04:15:36;;;;;;;1.27;0.45;;;;;;;;;;5017831;28;20456;-79
2023/11/25 04:18:02;;;;;;;3.28;0.77;;;;;;;;;;5018780;28;20881;-79
2023/11/25 04:20:28;;;;;;;1.15;0.80;;;;;;;;;;5018759;28;20391;-79
2023/11/25 04:22:59;;;;;;;1.42;0.63;;;;;;;;;;5019796;28;20394;-79
2023/11/25 04:25:25;;;;;;;1.25;0.70;;;;;;;;;;5019281;28;20426;-79
2023/11/25 04:27:51;;;;;;;1.20;0.70;;;;;;;;;;5018649;28;20427;-79
2023/11/25 04:30:17;;;;;;;1.25;0.50;;;;;;;;;;5019196;28;20442;-79
2023/11/25 04:32:44;;;;;;;0.77;0.50;;;;;;;;;;5019231;28;20396;-79
2023/11/25 04:35:11;;;;;;;1.40;0.63;;;;;;;;;;5018873;28;20385;-79
2023/11/25 04:37:37;;;;;;;1.58;0.90;;;;;;;;;;5016116;28;20385;-79
2023/11/25 04:40:07;;;;;;;1.80;0.65;;;;;;;;;;5019058;28;20467;-78
2023/11/25 04:42:33;;;;;;;0.88;0.50;;;;;;;;;;5019062;28;20430;-78
2023/11/25 04:44:59;;;;;;;1.90;0.70;;;;;;;;;;5019525;28;20388;-79
2023/11/25 04:47:26;;;;;;;1.43;0.73;;;;;;;;;;5019286;28;20879;-79
2023/11/25 04:49:53;;;;;;;1.30;0.65;;;;;;;;;;5018981;28;20475;-79
2023/11/25 04:52:19;;;;;;;1.92;0.60;;;;;;;;;;5018479;28;20377;-78
2023/11/25 04:54:46;;;;;;;0.80;0.55;;;;;;;;;;5018379;28;20562;-78
2023/11/25 04:57:12;;;;;;;1.38;0.70;;;;;;;;;;5018624;28;20881;-80
2023/11/25 04:59:38;;;;;;;2.70;0.70;;;;;;;;;;5018587;28;20441;-80
2023/11/25 05:02:05;;;;;;;1.63;0.60;;;;;;;;;;5021985;28;20917;-80
2023/11/25 05:04:31;;;;;;;1.17;0.50;;;;;;;;;;5037787;28;20409;-78
2023/11/25 05:06:57;;;;;;;1.60;0.90;;;;;;;;;;5038260;28;20418;-80
2023/11/25 05:09:26;;;;;;;2.17;0.85;;;;;;;;;;5038505;28;20372;-80
2023/11/25 05:11:52;;;;;;;1.60;0.70;;;;;;;;;;5038905;28;20840;-79
2023/11/25 05:14:18;;;;;;;1.48;0.68;;;;;;;;;;5038048;28;20721;-79
2023/11/25 05:16:44;;;;;;;2.03;0.80;;;;;;;;;;5037928;28;20474;-78
2023/11/25 05:19:11;;;;;;;2.65;0.80;;;;;;;;;;5038512;28;20403;-78
2023/11/25 05:21:37;;;;;;;2.30;0.80;;;;;;;;;;5037555;28;20844;-78
2023/11/25 05:24:04;;;;;;;2.80;0.70;;;;;;;;;;5037428;28;20470;-79
2023/11/25 05:26:30;;;;;;;3.03;0.77;;;;;;;;;;5038020;28;20394;-79
2023/11/25 05:28:56;;;;;;;3.20;0.90;;;;;;;;;;5038552;28;20391;-78
2023/11/25 05:31:22;;;;;;;2.20;0.70;;;;;;;;;;5038582;28;20389;-78
2023/11/25 05:33:49;;;;;;;1.40;0.70;;;;;;;;;;5038205;28;20383;-79
2023/11/25 05:36:15;;;;;;;2.03;0.80;;;;;;;;;;5037708;28;20421;-78
2023/11/25 05:38:41;;;;;;;2.00;0.77;;;;;;;;;;5037132;28;20375;-79
2023/11/25 05:41:08;;;;;;;2.17;0.98;;;;;;;;;;5020192;28;20857;-79
2023/11/25 05:43:35;;;;;;;3.07;0.97;;;;;;;;;;5037674;28;20390;-78
2023/11/25 05:46:01;;;;;;;2.58;0.98;;;;;;;;;;5036215;28;20488;-78
2023/11/25 05:48:27;;;;;;;1.60;0.95;;;;;;;;;;5037214;28;20415;-80
2023/11/25 05:50:53;;;;;;;2.75;1.10;;;;;;;;;;5037205;28;20383;-80
2023/11/25 05:53:19;;;;;;;2.10;1.10;;;;;;;;;;5036859;28;20518;-79
2023/11/25 05:55:45;;;;;;;3.70;1.10;;;;;;;;;;5038029;28;20415;-79
2023/11/25 05:58:13;;;;;;;1.90;0.87;;;;;;;;;;5036837;28;20383;-80
2023/11/25 06:00:39;;;;;;;1.90;1.00;;;;;;;;;;5037103;28;20418;-80
2023/11/25 06:03:05;;;;;;;2.83;0.82;;;;;;;;;;5034682;28;20903;-80
2023/11/25 06:05:31;;;;;;;2.22;0.85;;;;;;;;;;5036757;28;20381;-79
2023/11/25 06:07:57;;;;;;;3.17;1.03;;;;;;;;;;5036209;28;20426;-80
2023/11/25 06:10:23;;;;;;;2.20;1.00;;;;;;;;;;5036008;28;20892;-80
2023/11/25 06:12:49;;;;;;;2.05;0.90;;;;;;;;;;5035601;28;20426;-80
2023/11/25 06:15:15;;;;;;;3.03;1.00;;;;;;;;;;5037197;28;20380;-77
2023/11/25 06:17:44;;;;;;;2.78;1.02;;;;;;;;;;5035604;28;20387;-78
2023/11/25 06:20:11;;;;;;;2.72;1.17;;;;;;;;;;5035701;28;20379;-77
2023/11/25 06:22:38;;;;;;;4.33;1.00;;;;;;;;;;5035049;28;20840;-77
2023/11/25 06:25:05;;;;;;;1.60;0.90;;;;;;;;;;5035353;28;20390;-77
2023/11/25 06:27:31;;;;;;;2.07;1.10;;;;;;;;;;5036070;28;20902;-78
2023/11/25 06:29:58;;;;;;;1.45;0.80;;;;;;;;;;5031035;28;20389;-78
2023/11/25 06:32:27;;;;;;;5.18;3.10;;;;;;;;;;5020237;28;20384;-78
2023/11/25 06:34:53;;;;;;;4.80;1.97;;;;;;;;;;5019435;28;20426;-78
2023/11/25 06:37:19;;;;;;;2.80;1.50;;;;;;;;;;5020309;28;20494;-78
2023/11/25 06:39:45;;;;;;;3.60;1.60;;;;;;;;;;5019734;28;20707;-78
2023/11/25 06:42:12;;;;;;;2.55;1.48;;;;;;;;;;5021034;28;20403;-81
2023/11/25 06:44:38;;;;;;;3.33;1.20;;;;;;;;;;5021748;28;20401;-78
2023/11/25 06:47:05;;;;;;;3.78;1.15;;;;;;;;;;5021025;28;20417;-78
2023/11/25 06:49:31;;;;;;;2.60;1.15;;;;;;;;;;5020050;28;20470;-78
2023/11/25 06:51:58;;;;;;;3.47;1.30;;;;;;;;;;5020713;28;20393;-78
2023/11/25 06:54:24;;;;;;;1.77;0.90;;;;;;;;;;5020188;28;20903;-78
2023/11/25 06:56:51;;;;;;;3.50;1.80;;;;;;;;;;5020730;28;20392;-78
2023/11/25 06:59:17;;;;;;;3.35;1.35;;;;;;;;;;5020371;28;20409;-78
2023/11/25 07:01:43;;;;;;;2.95;1.33;;;;;;;;;;5031251;28;20391;-78
2023/11/25 07:04:10;;;;;;;3.93;1.97;;;;;;;;;;5040386;28;20387;-79
2023/11/25 07:06:36;;;;;;;3.83;2.00;;;;;;;;;;5040459;28;20417;-78
2023/11/25 07:09:03;;;;;;;3.63;1.40;;;;;;;;;;5038651;28;20390;-78
2023/11/25 07:11:34;;;;;;;3.28;1.30;;;;;;;;;;5040296;28;20384;-78
2023/11/25 07:14:00;;;;;;;3.75;1.50;;;;;;;;;;5038751;28;20395;-78
2023/11/25 07:16:26;;;;;;;3.05;1.40;;;;;;;;;;5039714;28;20394;-78
2023/11/25 07:18:52;;;;;;;4.15;1.50;;;;;;;;;;5040571;28;20391;-78
2023/11/25 07:21:19;;;;;;;4.17;1.40;;;;;;;;;;5040959;28;20449;-79
2023/11/25 07:23:45;;;;;;;2.63;1.48;;;;;;;;;;5040633;28;20378;-78
2023/11/25 07:26:14;;;;;;;2.40;1.17;;;;;;;;;;5040614;28;20465;-78
2023/11/25 07:28:42;;;;;;;2.10;1.25;;;;;;;;;;5039576;28;20483;-78
2023/11/25 07:31:11;;;;;;;4.85;2.45;;;;;;;;;;5039968;28;20432;-78
2023/11/25 07:33:38;;;;;;;3.13;1.90;;;;;;;;;;5039479;28;20383;-78
2023/11/25 07:36:04;;;;;;;3.92;1.35;;;;;;;;;;5037523;28;20429;-79
2023/11/25 07:38:30;;;;;;;2.63;1.60;;;;;;;;;;5035990;28;20386;-79
2023/11/25 07:40:56;;;;;;;2.78;2.42;;;;;;;;;;5035795;28;20398;-80
2023/11/25 07:43:24;;;;;;;3.30;1.80;;;;;;;;;;5037095;28;20387;-80
2023/11/25 07:45:50;;;;;;;2.53;2.20;;;;;;;;;;5037355;28;20428;-79
2023/11/25 07:48:16;;;;;;;3.63;1.58;;;;;;;;;;5037781;28;20445;-79
2023/11/25 07:50:45;;;;;;;4.28;1.60;;;;;;;;;;5037293;28;20395;-79
2023/11/25 07:53:11;;;;;;;2.70;1.45;;;;;;;;;;5037410;28;20833;-79
2023/11/25 07:55:37;;;;;;;2.60;1.50;;;;;;;;;;5036573;28;20453;-78
2023/11/25 07:58:03;;;;;;;3.60;1.60;;;;;;;;;;5035629;28;20380;-79
2023/11/25 08:00:29;;;;;;;2.85;1.67;;;;;;;;;;5035735;28;20932;-79
2023/11/25 08:02:55;;;;;;;2.83;1.80;;;;;;;;;;5035920;28;20384;-79
2023/11/25 08:05:28;;;;;;;2.65;1.40;;;;;;;;;;5035697;28;20460;-79
2023/11/25 08:07:55;;;;;;;4.30;2.05;;;;;;;;;;5035656;28;21038;-78
2023/11/25 08:10:23;;;;;;;3.55;2.00;;;;;;;;;;5031347;28;20466;-79
2023/11/25 08:12:49;;;;;;;4.13;2.07;;;;;;;;;;5016016;28;21037;-79
2023/11/25 08:15:15;;;;;;;4.57;1.45;;;;;;;;;;5015941;28;20396;-79
2023/11/25 08:17:42;;;;;;;4.55;1.90;;;;;;;;;;5016363;28;20391;-79
2023/11/25 08:20:10;;;;;;;4.63;1.20;;;;;;;;;;5015385;28;20438;-79
2023/11/25 08:22:37;;;;;;;2.05;0.90;;;;;;;;;;5018679;28;20380;-80
2023/11/25 08:25:07;;;;;;;2.67;1.00;;;;;;;;;;5016200;28;20464;-79
2023/11/25 08:27:33;;;;;;;3.35;1.02;;;;;;;;;;5015823;28;20458;-79
2023/11/25 08:30:00;;;;;;;3.90;1.20;;;;;;;;;;5014364;28;20388;-81
2023/11/25 08:32:26;;;;;;;3.70;1.08;;;;;;;;;;5016015;28;20392;-79
2023/11/25 08:34:52;;;;;;;2.88;1.02;;;;;;;;;;5016260;28;20392;-79
2023/11/25 08:37:24;;;;;;;2.42;1.30;;;;;;;;;;5016047;28;20711;-79
2023/11/25 08:39:50;;;;;;;3.35;1.20;;;;;;;;;;5016276;28;20435;-79
2023/11/25 08:42:16;;;;;;;3.15;1.30;;;;;;;;;;5017074;28;20389;-79
2023/11/25 08:44:45;;;;;;;3.53;1.45;;;;;;;;;;5016617;28;20407;-80
2023/11/25 08:47:11;;;;;;;2.85;1.30;;;;;;;;;;5016047;28;20450;-79
2023/11/25 08:49:37;;;;;;;2.47;1.10;;;;;;;;;;5016107;28;20443;-79
2023/11/25 08:52:03;;;;;;;3.28;1.35;;;;;;;;;;5015622;28;20458;-79
2023/11/25 08:54:36;;;;;;;3.05;0.90;;;;;;;;;;5014557;28;20416;-79
2023/11/25 08:57:02;;;;;;;2.45;1.10;;;;;;;;;;5016595;28;20904;-79
2023/11/25 08:59:29;;;;;;;3.15;1.30;;;;;;;;;;5016640;28;20861;-80
2023/11/25 09:01:57;;;;;;;3.90;1.02;;;;;;;;;;5017992;28;20861;-80
2023/11/25 09:04:25;;;;;;;4.40;1.50;;;;;;;;;;5017875;28;20447;-80
2023/11/25 09:06:52;;;;;;;3.20;1.27;;;;;;;;;;5015745;28;20735;-80
2023/11/25 09:09:19;;;;;;;2.55;1.20;;;;;;;;;;5028876;28;20924;-79
2023/11/25 09:11:45;;;;;;;3.63;1.47;;;;;;;;;;5036541;28;20836;-79
2023/11/25 09:14:11;;;;;;;4.13;1.63;;;;;;;;;;5036639;28;20398;-80
2023/11/25 09:16:38;;;;;;;2.20;1.50;;;;;;;;;;5035360;28;20374;-80
2023/11/25 09:19:04;;;;;;;2.60;1.30;;;;;;;;;;5036472;28;20391;-80
2023/11/25 09:21:30;;;;;;;4.85;2.08;;;;;;;;;;5036327;28;20391;-80
2023/11/25 09:23:56;;;;;;;3.15;1.50;;;;;;;;;;5036260;28;20390;-80
2023/11/25 09:26:25;;;;;;;5.90;1.50;;;;;;;;;;5036137;28;20387;-79
2023/11/25 09:28:52;;;;;;;3.55;1.40;;;;;;;;;;5036368;28;20423;-80
2023/11/25 09:31:19;;;;;;;5.53;1.67;;;;;;;;;;5035570;28;20903;-80
2023/11/25 09:33:45;;;;;;;3.17;1.50;;;;;;;;;;5036846;28;20450;-80
2023/11/25 09:36:12;;;;;;;2.28;1.50;;;;;;;;;;5034119;28;20729;-79
2023/11/25 09:38:38;;;;;;;3.30;1.63;;;;;;;;;;5034633;28;20378;-79
2023/11/25 09:41:05;;;;;;;4.22;2.10;;;;;;;;;;5035309;28;21128;-78
2023/11/25 09:43:31;;;;;;;4.35;1.75;;;;;;;;;;5035870;28;20379;-79
2023/11/25 09:45:57;;;;;;;4.45;1.70;;;;;;;;;;5036685;28;20387;-79
2023/11/25 09:48:23;;;;;;;5.20;2.08;;;;;;;;;;5036605;28;20407;-79
2023/11/25 09:50:53;;;;;;;2.75;2.00;;;;;;;;;;5036633;28;20395;-81
2023/11/25 09:53:25;;;;;;;2.65;1.92;;;;;;;;;;5037396;28;20454;-80
2023/11/25 09:56:01;;;;;;;6.25;2.05;;;;;;;;;;5036987;28;20918;-80
2023/11/25 09:58:28;;;;;;;4.18;2.00;;;;;;;;;;5035972;28;20932;-80
2023/11/25 10:00:58;;;;;;;5.18;2.25;;;;;;;;;;5036788;28;20391;-79
2023/11/25 10:03:26;;;;;;;3.58;1.85;;;;;;;;;;5039991;28;20435;-79
2023/11/25 10:05:52;;;;;;;3.78;1.80;;;;;;;;;;5040312;28;20466;-79
2023/11/25 10:08:18;;;;;;;5.22;2.00;;;;;;;;;;5037536;28;20472;-80
2023/11/25 10:10:58;;;;;;;3.80;1.73;;;;;;;;;;5040046;28;20391;-79
2023/11/25 10:13:30;;;;;;;5.45;2.20;;;;;;;;;;5039656;28;20424;-79
2023/11/25 10:15:56;;;;;;;3.63;1.75;;;;;;;;;;5039027;28;20473;-79
2023/11/25 10:18:24;;;;;;;3.63;1.25;;;;;;;;;;5040700;28;20389;-79
2023/11/25 10:20:57;;;;;;;5.77;1.60;;;;;;;;;;5038284;28;20551;-80
2023/11/25 10:23:23;;;;;;;4.65;1.75;;;;;;;;;;5036909;28;20439;-79
2023/11/25 10:25:52;;;;;;;3.75;1.30;;;;;;;;;;5032730;28;20386;-80
2023/11/25 10:28:25;;;;;;;3.73;1.40;;;;;;;;;;5035999;28;20475;-80
2023/11/25 10:30:55;;;;;;;3.78;1.50;;;;;;;;;;5039501;28;20454;-79
2023/11/25 10:33:22;;;;;;;3.85;1.52;;;;;;;;;;5040407;28;20427;-80
2023/11/25 10:35:48;;;;;;;3.85;1.67;;;;;;;;;;5040575;28;20402;-80
2023/11/25 10:38:21;;;;;;;2.95;1.50;;;;;;;;;;5040643;28;20379;-80
2023/11/25 10:40:48;;;;;;;7.88;1.75;;;;;;;;;;5042262;28;20744;-80
2023/11/25 10:43:14;;;;;;;4.13;1.80;;;;;;;;;;5042768;28;20391;-80
2023/11/25 10:45:42;;;;;;;3.22;1.67;;;;;;;;;;5043115;28;20417;-79
2023/11/25 10:48:08;;;;;;;3.67;1.77;;;;;;;;;;5022608;28;20418;-80
2023/11/25 10:50:34;;;;;;;3.50;2.08;;;;;;;;;;5038710;28;20387;-79
2023/11/25 10:53:05;;;;;;;6.53;2.65;;;;;;;;;;5038215;28;20466;-80
2023/11/25 10:55:32;;;;;;;4.32;2.20;;;;;;;;;;5034580;28;20542;-79
2023/11/25 10:58:00;;;;;;;3.08;1.88;;;;;;;;;;5039384;28;20393;-80
2023/11/25 11:00:30;;;;;;;4.68;2.58;;;;;;;;;;5040209;28;20845;-79
2023/11/25 11:02:57;;;;;;;6.00;3.20;;;;;;;;;;5020214;28;20861;-79
2023/11/25 11:05:27;;;;;;;3.65;2.30;;;;;;;;;;5038529;28;20406;-79
2023/11/25 11:08:00;;;;;;;5.85;2.38;;;;;;;;;;5039195;28;20487;-79
2023/11/25 11:10:31;;;;;;;5.00;2.58;;;;;;;;;;5039679;28;20864;-79
2023/11/25 11:13:03;;;;;;;4.55;2.40;;;;;;;;;;5037394;28;20424;-79
2023/11/25 11:15:31;;;;;;;5.60;2.90;;;;;;;;;;5038779;28;20446;-79
2023/11/25 11:18:13;;;;;;;4.13;2.42;;;;;;;;;;5036950;28;20392;-80
2023/11/25 11:20:44;;;;;;;5.88;2.67;;;;;;;;;;5036940;28;20384;-80
2023/11/25 11:23:10;;;;;;;4.93;3.00;;;;;;;;;;5038641;28;20399;-80
2023/11/25 11:25:55;;;;;;;4.05;2.90;;;;;;;;;;5038415;28;20737;-80
2023/11/25 11:28:37;;;;;;;3.25;2.08;;;;;;;;;;5038542;28;20446;-80
2023/11/25 11:31:15;;;;;;;3.35;2.30;;;;;;;;;;5038583;28;20390;-80
2023/11/25 11:33:41;;;;;;;4.07;2.83;;;;;;;;;;5038409;28;20395;-80
2023/11/25 11:36:07;;;;;;;4.07;2.70;;;;;;;;;;5037668;28;20474;-80
2023/11/25 11:38:33;;;;;;;4.40;1.75;;;;;;;;;;5036845;28;20411;-80
2023/11/25 11:41:00;;;;;;;5.23;1.93;;;;;;;;;;5037188;28;20430;-80
2023/11/25 11:43:29;;;;;;;5.95;2.03;;;;;;;;;;5037563;28;20414;-80
2023/11/25 11:45:55;;;;;;;6.50;1.90;;;;;;;;;;5037500;28;20387;-80
2023/11/25 11:48:22;;;;;;;3.60;1.60;;;;;;;;;;5037743;28;20453;-79
2023/11/25 11:50:54;;;;;;;3.70;1.38;;;;;;;;;;5038013;28;20477;-79
2023/11/25 11:53:21;;;;;;;3.85;2.08;;;;;;;;;;5037737;28;20383;-80
2023/11/25 11:55:52;;;;;;;5.60;1.83;;;;;;;;;;5036718;28;20386;-79
2023/11/25 11:58:22;;;;;;;5.43;1.90;;;;;;;;;;5036630;28;20416;-79
2023/11/25 12:00:49;;;;;;;5.05;1.60;;;;;;;;;;5037453;28;20516;-80
2023/11/25 12:03:16;;;;;;;6.60;1.90;;;;;;;;;;5036983;28;20415;-80
2023/11/25 12:05:42;;;;;;;4.22;1.85;;;;;;;;;;5037468;28;20434;-80
2023/11/25 12:08:08;;;;;;;3.85;1.80;;;;;;;;;;5019070;28;20426;-80
2023/11/25 12:10:35;;;;;;;4.78;1.85;;;;;;;;;;5037106;28;20412;-80
2023/11/25 12:13:01;;;;;;;3.97;1.80;;;;;;;;;;5032755;28;20668;-80
2023/11/25 12:15:30;;;;;;;4.47;1.83;;;;;;;;;;5018324;28;20389;-80
2023/11/25 12:17:56;;;;;;;4.80;2.10;;;;;;;;;;5017548;28;20519;-80
2023/11/25 12:20:22;;;;;;;5.50;2.00;;;;;;;;;;5017998;28;20477;-80
2023/11/25 12:22:49;;;;;;;4.28;1.85;;;;;;;;;;5020134;28;20381;-80
2023/11/25 12:25:19;;;;;;;5.20;1.80;;;;;;;;;;5018193;28;20511;-80
2023/11/25 12:28:05;;;;;;;5.90;1.90;;;;;;;;;;5016960;28;20465;-80
2023/11/25 12:30:31;;;;;;;5.95;1.92;;;;;;;;;;5017207;28;20836;-80
2023/11/25 12:32:57;;;;;;;2.95;1.50;;;;;;;;;;5016806;28;20388;-80
2023/11/25 12:35:24;;;;;;;3.72;1.65;;;;;;;;;;5017721;28;20395;-80
2023/11/25 12:37:50;;;;;;;5.35;1.90;;;;;;;;;;5017100;28;20385;-80
2023/11/25 12:40:21;;;;;;;5.67;2.10;;;;;;;;;;5017034;28;20738;-79
2023/11/25 12:42:49;;;;;;;4.97;1.67;;;;;;;;;;5017143;28;20426;-80
2023/11/25 12:45:28;;;;;;;5.05;1.80;;;;;;;;;;5017380;28;20430;-80
2023/11/25 12:48:02;;;;;;;5.53;2.00;;;;;;;;;;5079030;28;20846;-80
2023/11/25 12:50:31;;;;;;;3.90;1.80;;;;;;;;;;5078794;28;20388;-80
2023/11/25 12:53:04;;;;;;;5.15;2.80;;;;;;;;;;5079341;28;20916;-81
2023/11/25 12:55:34;;;;;;;3.40;1.75;;;;;;;;;;5078912;28;20847;-81
2023/11/25 12:58:06;;;;;;;3.50;1.50;;;;;;;;;;5079024;28;20950;-80
2023/11/25 13:00:32;;;;;;;5.32;1.77;;;;;;;;;;5074481;28;20413;-80
2023/11/25 13:02:58;;;;;;;5.55;1.52;;;;;;;;;;5071382;28;20459;-80
2023/11/25 13:05:25;;;;;;;5.40;1.55;;;;;;;;;;5077874;28;20407;-80
2023/11/25 13:07:51;;;;;;;3.30;1.60;;;;;;;;;;5072546;28;20410;-81
2023/11/25 13:10:17;;;;;;;6.40;1.80;;;;;;;;;;5058262;28;20393;-81
2023/11/25 13:12:43;;;;;;;2.75;1.40;;;;;;;;;;5057114;28;20375;-81
2023/11/25 13:15:09;;;;;;;3.73;1.57;;;;;;;;;;5055851;28;20892;-80
2023/11/25 13:17:35;;;;;;;4.65;1.90;;;;;;;;;;5054648;28;20472;-80
2023/11/25 13:20:03;;;;;;;4.93;1.80;;;;;;;;;;5053984;28;20386;-80
2023/11/25 13:22:29;;;;;;;5.25;1.67;;;;;;;;;;5054543;28;20427;-80
2023/11/25 13:24:55;;;;;;;4.97;1.67;;;;;;;;;;5055342;28;20383;-80
2023/11/25 13:27:22;;;;;;;4.20;1.50;;;;;;;;;;5056049;28;20409;-80
2023/11/25 13:29:48;;;;;;;5.75;1.85;;;;;;;;;;5054777;28;20382;-81
2023/11/25 13:32:17;;;;;;;3.20;1.30;;;;;;;;;;5057696;28;20397;-80
2023/11/25 13:34:43;;;;;;;4.03;1.50;;;;;;;;;;5056939;28;20419;-81
2023/11/25 13:37:09;;;;;;;5.40;1.40;;;;;;;;;;5055469;28;20394;-81
2023/11/25 13:39:35;;;;;;;4.95;1.50;;;;;;;;;;5057526;28;20390;-81
2023/11/25 13:42:01;;;;;;;4.03;1.40;;;;;;;;;;5054282;28;20816;-81
2023/11/25 13:44:27;;;;;;;3.37;1.40;;;;;;;;;;5050230;28;20516;-80
2023/11/25 13:46:53;;;;;;;4.22;1.63;;;;;;;;;;5062857;28;20425;-80
2023/11/25 13:49:19;;;;;;;5.28;1.80;;;;;;;;;;5060373;28;20950;-80
2023/11/25 13:51:45;;;;;;;3.13;1.45;;;;;;;;;;5076515;28;20385;-80
2023/11/25 13:54:11;;;;;;;3.05;1.70;;;;;;;;;;5077419;28;20381;-80
2023/11/25 13:56:37;;;;;;;3.42;2.05;;;;;;;;;;5077752;28;20389;-80
2023/11/25 13:59:03;;;;;;;4.35;1.73;;;;;;;;;;5065647;28;20393;-80
2023/11/25 14:01:29;;;;;;;3.10;1.58;;;;;;;;;;5064158;28;20392;-80
2023/11/25 14:03:56;;;;;;;8.15;2.00;;;;;;;;;;5064043;28;20457;-80
2023/11/25 14:06:28;;;;;;;4.47;2.03;;;;;;;;;;5062617;28;20409;-80
2023/11/25 14:08:54;;;;;;;3.93;1.73;;;;;;;;;;5060256;28;20381;-79
2023/11/25 14:11:23;;;;;;;7.00;1.73;;;;;;;;;;5048273;28;20468;-80
2023/11/25 14:13:51;;;;;;;4.07;1.60;;;;;;;;;;5081650;28;20405;-80
2023/11/25 14:16:17;;;;;;;3.45;1.73;;;;;;;;;;5079499;28;20387;-80
2023/11/25 14:18:46;;;;;;;5.15;2.00;;;;;;;;;;5076765;28;20414;-80
2023/11/25 14:21:13;;;;;;;6.28;2.15;;;;;;;;;;5075997;28;20383;-80
2023/11/25 14:23:39;;;;;;;3.72;1.77;;;;;;;;;;5078754;28;21181;-78
2023/11/25 14:26:05;;;;;;;4.18;1.75;;;;;;;;;;5078139;28;20443;-80
2023/11/25 14:28:31;;;;;;;3.72;1.52;;;;;;;;;;5077406;28;20400;-80
2023/11/25 14:30:57;;;;;;;3.60;1.70;;;;;;;;;;5077280;28;20372;-80
2023/11/25 14:33:23;;;;;;;4.45;1.63;;;;;;;;;;5070554;28;20453;-79
2023/11/25 14:35:49;;;;;;;4.68;1.85;;;;;;;;;;5059176;28;20378;-79
2023/11/25 14:38:15;;;;;;;4.50;1.90;;;;;;;;;;5058825;28;20378;-79
2023/11/25 14:40:42;;;;;;;5.20;2.15;;;;;;;;;;5059617;28;20380;-79
2023/11/25 14:43:09;;;;;;;5.15;1.85;;;;;;;;;;5057482;28;20384;-79